createdAt,value
2022-10-18T00:00:27.412Z,21.23
2022-10-18T00:02:29.210Z,20.50
2022-10-18T00:04:31.520Z,21.55
2022-10-18T00:06:33.330Z,19.08
2022-10-18T00:08:36.233Z,19.55
2022-10-18T00:10:38.341Z,18.67
2022-10-18T00:12:40.469Z,19.35
2022-10-18T00:14:42.218Z,18.42
2022-10-18T00:16:44.075Z,19.02
2022-10-18T00:18:46.101Z,18.13
2022-10-18T00:20:59.268Z,17.83
2022-10-18T00:23:01.458Z,17.80
2022-10-18T00:25:03.380Z,18.00
2022-10-18T00:27:05.071Z,15.38
2022-10-18T00:29:07.374Z,14.98
2022-10-18T00:31:12.717Z,16.00
2022-10-18T00:33:14.424Z,16.50
2022-10-18T00:35:16.548Z,16.83
2022-10-18T00:37:19.083Z,20.30
2022-10-18T00:39:21.943Z,18.90
2022-10-18T00:41:34.196Z,18.55
2022-10-18T00:43:57.616Z,15.40
2022-10-18T00:45:59.315Z,16.88
2022-10-18T00:48:04.606Z,16.02
2022-10-18T00:50:08.288Z,16.63
2022-10-18T00:54:16.642Z,16.00
2022-10-18T00:56:18.598Z,16.38
2022-10-18T00:58:20.601Z,17.83
2022-10-18T01:00:22.302Z,16.98
2022-10-18T01:02:25.146Z,16.50
2022-10-18T01:04:26.946Z,15.70
2022-10-18T01:06:29.430Z,15.15
2022-10-18T01:08:38.279Z,15.82
2022-10-18T01:10:59.872Z,16.20
2022-10-18T01:13:29.344Z,14.38
2022-10-18T01:15:34.121Z,14.82
2022-10-18T01:18:00.968Z,14.93
2022-10-18T01:20:27.437Z,15.10
2022-10-18T01:22:37.920Z,14.52
2022-10-18T01:24:54.536Z,15.88
2022-10-18T01:27:02.091Z,14.88
2022-10-18T01:29:25.529Z,15.80
2022-10-18T01:31:49.023Z,16.05
2022-10-18T01:34:05.320Z,16.00
2022-10-18T01:36:19.990Z,15.23
2022-10-18T01:38:24.914Z,15.00
2022-10-18T01:40:29.747Z,15.02
2022-10-18T01:42:32.324Z,16.48
2022-10-18T01:44:35.562Z,15.77
2022-10-18T01:46:39.665Z,16.08
2022-10-18T01:48:41.627Z,16.40
2022-10-18T01:50:43.606Z,16.58
2022-10-18T01:52:50.332Z,18.23
2022-10-18T01:54:54.212Z,16.88
2022-10-18T01:57:05.666Z,19.38
2022-10-18T01:59:38.687Z,18.45
2022-10-18T02:02:08.333Z,20.13
2022-10-18T02:04:41.391Z,19.58
2022-10-18T02:06:45.343Z,18.63
2022-10-18T02:08:55.322Z,20.25
2022-10-18T02:11:02.602Z,19.30
2022-10-18T02:13:05.000Z,20.48
2022-10-18T02:15:09.490Z,22.38
2022-10-18T02:17:13.159Z,21.83
2022-10-18T02:21:22.748Z,20.13
2022-10-18T02:23:25.929Z,18.88
2022-10-18T02:25:31.130Z,21.73
2022-10-18T02:27:32.987Z,19.70
2022-10-18T02:29:35.531Z,26.80
2022-10-18T02:31:45.154Z,19.58
2022-10-18T02:33:53.280Z,18.67
2022-10-18T02:36:05.495Z,18.20
2022-10-18T02:38:09.822Z,18.60
2022-10-18T02:40:11.742Z,20.83
2022-10-18T02:42:15.085Z,19.50
2022-10-18T02:44:16.831Z,19.40
2022-10-18T02:46:19.646Z,19.65
2022-10-18T02:48:21.428Z,20.13
2022-10-18T02:50:23.113Z,21.60
2022-10-18T02:52:25.037Z,19.92
2022-10-18T02:54:26.983Z,20.40
2022-10-18T02:56:28.815Z,19.02
2022-10-18T02:58:30.669Z,21.20
2022-10-18T03:00:32.413Z,20.50
2022-10-18T03:02:34.263Z,20.35
2022-10-18T03:04:35.971Z,19.25
2022-10-18T03:06:37.987Z,20.35
2022-10-18T03:08:39.890Z,19.77
2022-10-18T03:10:46.363Z,19.73
2022-10-18T03:12:48.173Z,19.55
2022-10-18T03:14:49.872Z,19.98
2022-10-18T03:16:51.704Z,19.73
2022-10-18T03:18:53.496Z,18.75
2022-10-18T03:20:55.197Z,18.98
2022-10-18T03:22:57.050Z,20.17
2022-10-18T03:24:58.793Z,20.35
2022-10-18T03:27:00.519Z,20.85
2022-10-18T03:29:02.282Z,20.92
2022-10-18T03:31:04.922Z,21.52
2022-10-18T03:33:06.984Z,20.05
2022-10-18T03:35:09.430Z,21.88
2022-10-18T03:37:11.310Z,25.75
2022-10-18T03:39:13.054Z,26.85
2022-10-18T03:41:14.807Z,22.00
2022-10-18T03:43:16.716Z,21.85
2022-10-18T03:45:18.407Z,22.58
2022-10-18T03:47:20.149Z,27.17
2022-10-18T03:49:22.043Z,23.42
2022-10-18T03:51:23.806Z,28.27
2022-10-18T03:53:25.614Z,28.60
2022-10-18T03:55:27.470Z,30.98
2022-10-18T03:57:29.226Z,28.55
2022-10-18T03:59:30.985Z,29.40
2022-10-18T04:01:32.756Z,24.13
2022-10-18T04:03:34.522Z,22.73
2022-10-18T04:05:36.284Z,21.48
2022-10-18T04:07:38.086Z,21.90
2022-10-18T04:09:39.800Z,21.35
2022-10-18T04:11:41.586Z,24.35
2022-10-18T04:13:43.488Z,22.63
2022-10-18T04:15:45.194Z,21.02
2022-10-18T04:17:47.289Z,23.40
2022-10-18T04:19:49.196Z,28.98
2022-10-18T04:21:50.882Z,33.25
2022-10-18T04:23:52.738Z,25.50
2022-10-18T04:25:54.898Z,25.08
2022-10-18T04:27:56.646Z,24.25
2022-10-18T04:29:58.395Z,26.58
2022-10-18T04:32:00.597Z,24.45
2022-10-18T04:34:02.415Z,26.38
2022-10-18T04:36:05.356Z,24.83
2022-10-18T04:38:07.283Z,24.70
2022-10-18T04:40:09.581Z,24.20
2022-10-18T04:42:11.330Z,24.15
2022-10-18T04:44:13.388Z,24.00
2022-10-18T04:46:15.076Z,24.17
2022-10-18T04:48:18.000Z,20.95
2022-10-18T04:50:19.975Z,22.17
2022-10-18T04:52:21.661Z,19.90
2022-10-18T04:54:26.489Z,19.95
2022-10-18T04:56:30.481Z,18.67
2022-10-18T04:58:32.770Z,18.88
2022-10-18T05:00:39.774Z,18.58
2022-10-18T05:02:41.946Z,18.23
2022-10-18T05:04:43.623Z,18.27
2022-10-18T05:06:45.640Z,19.38
2022-10-18T05:08:47.649Z,17.40
2022-10-18T05:10:49.359Z,18.55
2022-10-18T05:12:51.159Z,17.20
2022-10-18T05:14:53.309Z,18.30
2022-10-18T05:16:55.027Z,18.48
2022-10-18T05:18:56.830Z,18.30
2022-10-18T05:20:58.832Z,17.88
2022-10-18T05:23:00.543Z,19.52
2022-10-18T05:25:02.323Z,19.75
2022-10-18T05:27:04.262Z,19.52
2022-10-18T05:29:06.112Z,19.17
2022-10-18T05:31:10.036Z,18.90
2022-10-18T05:33:11.875Z,18.35
2022-10-18T05:35:13.618Z,19.33
2022-10-18T05:37:15.379Z,23.02
2022-10-18T05:39:17.235Z,29.05
2022-10-18T05:41:19.053Z,23.75
2022-10-18T05:43:21.362Z,23.00
2022-10-18T05:45:23.175Z,22.40
2022-10-18T05:47:25.001Z,21.77
2022-10-18T05:49:27.051Z,20.75
2022-10-18T05:51:28.951Z,21.23
2022-10-18T05:53:38.375Z,21.23
2022-10-18T05:55:40.316Z,24.15
2022-10-18T05:57:42.267Z,23.40
2022-10-18T05:59:44.540Z,23.67
2022-10-18T06:01:46.446Z,25.27
2022-10-18T06:03:48.859Z,30.05
2022-10-18T06:05:50.577Z,27.83
2022-10-18T06:07:52.525Z,26.85
2022-10-18T06:09:54.286Z,31.35
2022-10-18T06:11:56.277Z,28.65
2022-10-18T06:13:58.315Z,29.98
2022-10-18T06:16:00.127Z,32.85
2022-10-18T06:18:01.886Z,33.35
2022-10-18T06:20:04.267Z,32.10
2022-10-18T06:22:06.151Z,35.72
2022-10-18T06:24:07.827Z,41.42
2022-10-18T06:26:11.818Z,41.40
2022-10-18T06:28:13.613Z,42.47
2022-10-18T06:30:15.455Z,42.03
2022-10-18T06:32:17.479Z,45.25
2022-10-18T06:34:19.609Z,40.03
2022-10-18T06:36:21.866Z,36.13
2022-10-18T06:38:24.039Z,35.20
2022-10-18T06:40:26.031Z,34.90
2022-10-18T06:42:27.730Z,33.13
2022-10-18T06:44:29.449Z,35.97
2022-10-18T06:46:31.903Z,40.30
2022-10-18T06:48:38.739Z,44.17
2022-10-18T06:50:40.483Z,67.43
2022-10-18T06:52:42.447Z,59.50
2022-10-18T06:54:45.419Z,55.83
2022-10-18T06:56:47.328Z,56.97
2022-10-18T06:58:49.308Z,56.15
2022-10-18T07:00:51.029Z,55.45
2022-10-18T07:02:52.777Z,48.92
2022-10-18T07:04:55.325Z,32.28
2022-10-18T07:06:57.078Z,47.25
2022-10-18T07:08:58.882Z,39.10
2022-10-18T07:11:01.332Z,31.95
2022-10-18T07:13:27.370Z,30.88
2022-10-18T07:15:24.785Z,27.48
2022-10-18T07:17:27.578Z,27.23
2022-10-18T07:19:29.279Z,27.67
2022-10-18T07:21:31.259Z,24.63
2022-10-18T07:23:34.749Z,24.75
2022-10-18T07:25:36.441Z,25.40
2022-10-18T07:27:40.499Z,23.98
2022-10-18T07:29:42.753Z,22.92
2022-10-18T07:31:44.444Z,22.55
2022-10-18T07:33:46.177Z,21.98
2022-10-18T07:35:48.363Z,20.05
2022-10-18T07:37:50.095Z,19.00
2022-10-18T07:39:51.780Z,20.48
2022-10-18T07:41:53.655Z,23.02
2022-10-18T07:43:55.407Z,26.70
2022-10-18T07:46:00.301Z,36.58
2022-10-18T07:48:02.679Z,39.08
2022-10-18T07:50:04.558Z,42.78
2022-10-18T07:52:06.322Z,40.58
2022-10-18T07:54:09.177Z,38.20
2022-10-18T07:56:16.705Z,37.93
2022-10-18T07:58:18.534Z,30.92
2022-10-18T08:00:20.793Z,24.40
2022-10-18T08:02:25.257Z,21.90
2022-10-18T08:04:26.948Z,20.77
2022-10-18T08:06:28.883Z,21.33
2022-10-18T08:08:30.669Z,18.55
2022-10-18T08:10:34.310Z,17.95
2022-10-18T08:14:37.847Z,17.25
2022-10-18T08:16:39.561Z,17.45
2022-10-18T08:18:41.477Z,17.27
2022-10-18T08:20:46.549Z,17.45
2022-10-18T08:22:51.275Z,17.83
2022-10-18T08:24:53.141Z,16.60
2022-10-18T08:26:55.070Z,17.20
2022-10-18T08:29:10.678Z,17.08
2022-10-18T08:31:19.516Z,16.63
2022-10-18T08:33:21.453Z,17.03
2022-10-18T08:35:23.193Z,18.13
2022-10-18T08:37:25.131Z,16.38
2022-10-18T08:39:30.587Z,17.88
2022-10-18T08:41:44.058Z,17.38
2022-10-18T08:44:29.327Z,16.58
2022-10-18T08:46:33.406Z,17.38
2022-10-18T08:48:48.687Z,17.23
2022-10-18T08:50:52.218Z,16.75
2022-10-18T08:52:59.014Z,17.92
2022-10-18T08:55:25.078Z,17.10
2022-10-18T08:57:27.245Z,16.15
2022-10-18T08:59:39.584Z,16.95
2022-10-18T09:01:54.326Z,17.10
2022-10-18T09:05:00.981Z,16.67
2022-10-18T09:07:37.367Z,17.10
2022-10-18T09:10:04.135Z,16.75
2022-10-18T09:12:35.110Z,16.88
2022-10-18T09:14:49.424Z,16.67
2022-10-18T09:17:13.664Z,17.30
2022-10-18T09:19:26.657Z,17.50
2022-10-18T09:21:43.780Z,17.10
2022-10-18T09:24:16.131Z,17.70
2022-10-18T09:26:23.460Z,15.57
2022-10-18T09:28:46.996Z,16.52
2022-10-18T09:31:10.273Z,17.20
2022-10-18T09:33:23.868Z,17.45
2022-10-18T09:35:34.064Z,17.80
2022-10-18T09:37:36.225Z,17.25
2022-10-18T09:39:39.276Z,25.23
2022-10-18T09:41:52.695Z,19.27
2022-10-18T09:44:03.607Z,18.80
2022-10-18T09:46:07.135Z,17.25
2022-10-18T09:48:27.228Z,22.60
2022-10-18T09:50:46.613Z,19.70
2022-10-18T09:52:57.366Z,18.75
2022-10-18T09:55:03.444Z,19.58
2022-10-18T09:57:11.824Z,22.67
2022-10-18T09:59:42.809Z,18.88
2022-10-18T10:01:44.601Z,21.60
2022-10-18T10:03:46.357Z,18.88
2022-10-18T10:06:02.456Z,26.83
2022-10-18T10:08:04.370Z,21.17
2022-10-18T10:10:26.789Z,19.70
2022-10-18T10:12:30.514Z,20.48
2022-10-18T10:14:43.690Z,19.30
2022-10-18T10:17:04.825Z,24.27
2022-10-18T10:19:06.618Z,21.00
2022-10-18T10:21:15.187Z,19.88
2022-10-18T10:23:21.989Z,18.80
2022-10-18T10:25:32.623Z,18.88
2022-10-18T10:27:45.507Z,20.00
2022-10-18T10:29:47.453Z,25.52
2022-10-18T10:32:02.502Z,25.50
2022-10-18T10:34:20.515Z,22.88
2022-10-18T10:36:22.402Z,27.73
2022-10-18T10:38:26.954Z,25.98
2022-10-18T10:40:30.999Z,22.52
2022-10-18T10:42:34.139Z,21.60
2022-10-18T10:44:36.993Z,22.52
2022-10-18T10:46:38.929Z,29.03
2022-10-18T10:49:04.232Z,25.05
2022-10-18T10:51:18.317Z,29.67
2022-10-18T10:53:29.136Z,28.90
2022-10-18T10:55:35.920Z,23.85
2022-10-18T10:57:38.572Z,37.30
2022-10-18T10:59:48.231Z,39.55
2022-10-18T11:02:10.138Z,30.73
2022-10-18T11:04:29.877Z,22.42
2022-10-18T11:06:34.599Z,20.30
2022-10-18T11:08:41.535Z,20.05
2022-10-18T11:10:56.461Z,18.95
2022-10-18T11:13:24.931Z,20.42
2022-10-18T11:15:33.109Z,35.30
2022-10-18T11:17:57.837Z,28.45
2022-10-18T11:20:21.855Z,25.15
2022-10-18T11:22:28.553Z,23.52
2022-10-18T11:24:31.574Z,22.05
2022-10-18T11:27:16.899Z,21.05
2022-10-18T11:29:44.345Z,21.60
2022-10-18T11:32:13.492Z,20.08
2022-10-18T11:34:49.649Z,19.38
2022-10-18T11:37:26.461Z,20.95
2022-10-18T11:39:51.233Z,19.17
2022-10-18T11:42:21.557Z,19.50
2022-10-18T11:44:43.188Z,19.40
2022-10-18T11:46:51.069Z,19.80
2022-10-18T11:49:30.893Z,19.45
2022-10-18T11:52:07.713Z,19.45
2022-10-18T11:54:43.667Z,30.70
2022-10-18T11:57:00.651Z,26.10
2022-10-18T11:59:23.601Z,27.70
2022-10-18T12:02:21.854Z,30.95
2022-10-18T12:04:34.869Z,24.92
2022-10-18T12:06:43.362Z,32.97
2022-10-18T12:08:57.445Z,29.63
2022-10-18T12:13:16.646Z,29.80
2022-10-18T12:15:24.930Z,33.28
2022-10-18T12:17:43.909Z,51.10
2022-10-18T12:19:50.582Z,89.97
2022-10-18T12:21:54.020Z,44.97
2022-10-18T12:24:08.497Z,51.95
2022-10-18T12:26:11.309Z,41.42
2022-10-18T12:28:28.333Z,45.37
2022-10-18T12:31:03.272Z,38.47
2022-10-18T12:33:33.477Z,35.47
2022-10-18T12:35:49.329Z,34.42
2022-10-18T12:38:02.989Z,37.25
2022-10-18T12:40:14.282Z,37.53
2022-10-18T12:44:35.344Z,33.90
2022-10-18T12:46:53.426Z,31.27
2022-10-18T12:49:05.771Z,34.13
2022-10-18T12:51:14.869Z,36.80
2022-10-18T12:53:20.332Z,39.67
2022-10-18T12:55:22.514Z,40.72
2022-10-18T12:57:24.406Z,48.63
2022-10-18T12:59:26.053Z,39.75
2022-10-18T13:01:50.595Z,38.90
2022-10-18T13:03:55.626Z,32.97
2022-10-18T13:06:01.800Z,45.97
2022-10-18T13:08:29.346Z,46.35
2022-10-18T13:10:35.880Z,44.35
2022-10-18T13:12:49.232Z,29.77
2022-10-18T13:15:12.668Z,28.80
2022-10-18T13:17:46.917Z,29.67
2022-10-18T13:20:24.021Z,31.00
2022-10-18T13:22:38.807Z,38.83
2022-10-18T13:24:57.656Z,36.55
2022-10-18T13:27:34.861Z,33.72
2022-10-18T13:29:46.120Z,30.75
2022-10-18T13:33:50.952Z,33.97
2022-10-18T13:35:58.586Z,32.00
2022-10-18T13:40:25.089Z,30.38
2022-10-18T13:42:33.791Z,29.85
2022-10-18T13:44:37.067Z,29.83
2022-10-18T13:46:39.045Z,29.77
2022-10-18T13:48:40.695Z,29.67
2022-10-18T13:50:44.767Z,40.15
2022-10-18T13:53:14.240Z,55.00
2022-10-18T13:55:43.748Z,78.03
2022-10-18T13:58:07.106Z,124.78
2022-10-18T14:00:27.402Z,92.18
2022-10-18T14:05:26.823Z,71.30
2022-10-18T14:07:29.770Z,55.58
2022-10-18T14:11:46.432Z,55.05
2022-10-18T14:13:55.234Z,56.10
2022-10-18T14:16:06.465Z,47.08
2022-10-18T14:18:21.139Z,39.40
2022-10-18T14:20:25.916Z,54.58
2022-10-18T14:22:38.231Z,120.03
2022-10-18T14:24:45.832Z,87.70
2022-10-18T14:26:47.901Z,67.18
2022-10-18T14:29:04.526Z,57.00
2022-10-18T14:31:13.261Z,47.47
2022-10-18T14:33:35.636Z,39.20
2022-10-18T14:35:37.382Z,33.65
2022-10-18T14:37:40.426Z,41.13
2022-10-18T14:39:42.394Z,33.72
2022-10-18T14:41:59.093Z,32.08
2022-10-18T14:44:16.195Z,32.28
2022-10-18T14:46:23.783Z,33.05
2022-10-18T14:48:25.507Z,39.78
2022-10-18T14:50:30.594Z,38.70
2022-10-18T14:52:35.653Z,38.50
2022-10-18T14:54:38.231Z,37.58
2022-10-18T14:56:42.738Z,40.15
2022-10-18T14:58:44.824Z,38.45
2022-10-18T15:00:48.575Z,39.08
2022-10-18T15:02:50.860Z,39.90
2022-10-18T15:05:08.385Z,38.60
2022-10-18T15:07:16.205Z,52.70
2022-10-18T15:09:23.337Z,94.28
2022-10-18T15:11:27.508Z,61.88
2022-10-18T15:13:31.663Z,56.47
2022-10-18T15:15:34.831Z,40.25
2022-10-18T15:17:36.898Z,37.55
2022-10-18T15:19:38.868Z,37.63
2022-10-18T15:22:30.278Z,40.58
2022-10-18T15:24:37.325Z,41.10
2022-10-18T15:26:45.433Z,32.17
2022-10-18T15:28:50.662Z,19.55
2022-10-18T15:30:52.608Z,16.52
2022-10-18T15:33:00.205Z,15.75
2022-10-18T15:35:29.778Z,12.82
2022-10-18T15:37:40.569Z,27.73
2022-10-18T15:39:42.520Z,36.10
2022-10-18T15:41:57.224Z,32.85
2022-10-18T15:44:20.142Z,34.47
2022-10-18T15:46:32.453Z,42.10
2022-10-18T15:48:37.949Z,34.65
2022-10-18T15:50:41.658Z,29.60
2022-10-18T15:54:45.237Z,21.88
2022-10-18T15:56:47.050Z,25.42
2022-10-18T15:58:49.077Z,9.48
2022-10-18T16:00:56.172Z,10.20
2022-10-18T16:02:58.365Z,8.65
2022-10-18T16:05:01.745Z,15.68
2022-10-18T16:07:03.444Z,39.30
2022-10-18T16:09:05.660Z,43.10
2022-10-18T16:11:22.085Z,61.47
2022-10-18T16:13:23.758Z,64.65
2022-10-18T16:15:25.800Z,58.85
2022-10-18T16:17:27.555Z,58.85
2022-10-18T16:19:30.260Z,96.25
2022-10-18T16:21:37.207Z,111.85
2022-10-18T16:23:38.953Z,79.50
2022-10-18T16:25:40.663Z,66.40
2022-10-18T16:27:42.660Z,61.83
2022-10-18T16:29:44.417Z,26.00
2022-10-18T16:31:46.264Z,34.00
2022-10-18T16:33:49.518Z,30.45
2022-10-18T16:35:52.002Z,22.90
2022-10-18T16:37:53.723Z,14.88
2022-10-18T16:39:55.637Z,26.55
2022-10-18T16:41:57.425Z,20.58
2022-10-18T16:43:59.335Z,15.05
2022-10-18T16:46:05.874Z,30.95
2022-10-18T16:48:09.372Z,21.73
2022-10-18T16:50:19.195Z,21.15
2022-10-18T16:52:20.877Z,19.85
2022-10-18T16:54:23.379Z,16.48
2022-10-18T16:56:30.791Z,10.90
2022-10-18T16:58:33.304Z,6.90
2022-10-18T17:00:35.138Z,7.40
2022-10-18T17:02:36.885Z,7.72
2022-10-18T17:04:38.602Z,12.23
2022-10-18T17:06:40.711Z,11.80
2022-10-18T17:08:43.036Z,17.27
2022-10-18T17:10:45.118Z,17.38
2022-10-18T17:12:47.060Z,8.90
2022-10-18T17:14:48.769Z,11.32
2022-10-18T17:16:54.684Z,12.95
2022-10-18T17:19:05.070Z,98.80
2022-10-18T17:21:06.772Z,35.30
2022-10-18T17:23:09.151Z,20.58
2022-10-18T17:25:11.107Z,10.32
2022-10-18T17:27:12.841Z,18.67
2022-10-18T17:29:14.697Z,45.75
2022-10-18T17:31:16.630Z,41.20
2022-10-18T17:33:18.323Z,47.45
2022-10-18T17:35:20.091Z,44.60
2022-10-18T17:37:21.992Z,36.40
2022-10-18T17:39:23.914Z,24.13
2022-10-18T17:41:26.074Z,35.78
2022-10-18T17:43:28.186Z,21.25
2022-10-18T17:45:29.988Z,27.23
2022-10-18T17:47:31.944Z,16.38
2022-10-18T17:49:34.036Z,19.20
2022-10-18T17:51:35.745Z,24.08
2022-10-18T17:53:37.611Z,16.20
2022-10-18T17:55:40.485Z,26.58
2022-10-18T17:57:43.624Z,51.80
2022-10-18T17:59:47.921Z,40.60
2022-10-18T18:01:49.814Z,32.28
2022-10-18T18:04:02.511Z,26.80
2022-10-18T18:06:14.567Z,33.47
2022-10-18T18:08:16.612Z,19.70
2022-10-18T18:10:18.298Z,15.48
2022-10-18T18:12:20.062Z,17.67
2022-10-18T18:14:23.263Z,16.98
2022-10-18T18:16:27.725Z,15.82
2022-10-18T18:18:29.491Z,15.43
2022-10-18T18:20:31.357Z,16.48
2022-10-18T18:22:33.692Z,15.45
2022-10-18T18:24:36.497Z,18.70
2022-10-18T18:26:39.208Z,15.27
2022-10-18T18:28:41.069Z,15.70
2022-10-18T18:30:42.963Z,17.52
2022-10-18T18:32:44.799Z,16.77
2022-10-18T18:34:46.539Z,14.25
2022-10-18T18:36:49.320Z,16.85
2022-10-18T18:38:55.524Z,18.23
2022-10-18T18:41:21.491Z,11.60
2022-10-18T18:43:23.617Z,13.75
2022-10-18T18:45:25.643Z,13.35
2022-10-18T18:47:27.452Z,11.90
2022-10-18T18:49:29.402Z,23.52
2022-10-18T18:51:31.279Z,33.08
2022-10-18T18:53:33.029Z,41.70
2022-10-18T18:55:34.752Z,39.13
2022-10-18T18:57:36.768Z,30.35
2022-10-18T18:59:38.490Z,35.85
2022-10-18T19:01:41.270Z,31.58
2022-10-18T19:03:44.714Z,19.60
2022-10-18T19:05:46.499Z,34.25
2022-10-18T19:07:49.084Z,31.70
2022-10-18T19:09:51.115Z,41.75
2022-10-18T19:11:55.356Z,28.42
2022-10-18T19:14:02.109Z,18.27
2022-10-18T19:16:36.283Z,10.00
2022-10-18T19:18:38.142Z,10.68
2022-10-18T19:20:39.865Z,16.23
2022-10-18T19:22:42.492Z,32.45
2022-10-18T19:24:44.235Z,34.50
2022-10-18T19:27:08.745Z,22.33
2022-10-18T19:29:17.363Z,23.02
2022-10-18T19:31:19.209Z,26.35
2022-10-18T19:33:41.499Z,32.65
2022-10-18T19:35:57.331Z,28.00
2022-10-18T19:37:59.137Z,22.30
2022-10-18T19:40:00.838Z,23.88
2022-10-18T19:42:16.006Z,21.45
2022-10-18T19:44:21.198Z,25.55
2022-10-18T19:46:24.148Z,18.02
2022-10-18T19:48:25.919Z,27.20
2022-10-18T19:50:27.713Z,35.78
2022-10-18T19:52:29.434Z,36.67
2022-10-18T19:54:31.528Z,39.17
2022-10-18T19:56:33.662Z,44.60
2022-10-18T19:58:36.202Z,47.33
2022-10-18T20:00:38.040Z,54.33
2022-10-18T20:02:39.813Z,46.40
2022-10-18T20:04:41.509Z,40.10
2022-10-18T20:06:43.396Z,51.05
2022-10-18T20:08:45.293Z,37.78
2022-10-18T20:10:47.131Z,25.58
2022-10-18T20:12:49.063Z,58.08
2022-10-18T20:14:51.051Z,30.42
2022-10-18T20:16:55.156Z,32.42
2022-10-18T20:18:58.875Z,27.30
2022-10-18T20:23:02.309Z,24.15
2022-10-18T20:25:04.377Z,27.23
2022-10-18T20:27:06.131Z,22.20
2022-10-18T20:29:07.971Z,21.75
2022-10-18T20:31:19.798Z,25.05
2022-10-18T20:33:21.651Z,25.52
2022-10-18T20:35:23.401Z,23.17
2022-10-18T20:37:25.148Z,21.48
2022-10-18T20:39:26.962Z,24.05
2022-10-18T20:41:31.405Z,21.02
2022-10-18T20:43:33.721Z,22.33
2022-10-18T20:45:35.404Z,21.65
2022-10-18T20:47:37.138Z,21.95
2022-10-18T20:49:38.929Z,21.65
2022-10-18T20:51:41.334Z,21.02
2022-10-18T20:53:43.696Z,22.17
2022-10-18T20:55:45.511Z,21.08
2022-10-18T20:57:47.452Z,21.35
2022-10-18T20:59:49.293Z,20.92
2022-10-18T21:01:51.172Z,21.98
2022-10-18T21:03:54.853Z,22.00
2022-10-18T21:07:58.903Z,19.90
2022-10-18T21:10:00.660Z,21.08
2022-10-18T21:12:02.422Z,21.70
2022-10-18T21:14:06.604Z,22.95
2022-10-18T21:16:08.371Z,23.23
2022-10-18T21:18:10.051Z,21.65
2022-10-18T21:20:12.061Z,22.02
2022-10-18T21:22:13.769Z,22.52
2022-10-18T21:24:15.475Z,21.90
2022-10-18T21:26:23.861Z,20.92
2022-10-18T21:28:25.694Z,21.02
2022-10-18T21:30:27.419Z,20.92
2022-10-18T21:32:29.437Z,20.92
2022-10-18T21:34:31.325Z,20.92
2022-10-18T21:36:36.934Z,21.42
2022-10-18T21:38:39.396Z,20.15
2022-10-18T21:40:41.291Z,22.33
2022-10-18T21:42:43.009Z,22.23
2022-10-18T21:44:45.039Z,23.90
2022-10-18T21:46:46.925Z,21.63
2022-10-18T21:48:51.710Z,20.50
2022-10-18T21:50:54.419Z,21.42
2022-10-18T21:52:56.191Z,20.55
2022-10-18T21:54:57.857Z,21.75
2022-10-18T21:56:59.576Z,19.38
2022-10-18T21:59:02.377Z,19.80
2022-10-18T22:01:21.722Z,19.37
2022-10-18T22:03:23.490Z,18.88
2022-10-18T22:05:25.278Z,20.90
2022-10-18T22:07:26.967Z,19.48
2022-10-18T22:09:28.738Z,18.52
2022-10-18T22:11:33.562Z,20.10
2022-10-18T22:13:35.567Z,22.35
2022-10-18T22:17:44.107Z,18.95
2022-10-18T22:19:45.877Z,17.25
2022-10-18T22:21:47.719Z,18.65
2022-10-18T22:23:51.820Z,16.95
2022-10-18T22:25:53.564Z,16.02
2022-10-18T22:27:55.283Z,16.10
2022-10-18T22:29:57.030Z,16.30
2022-10-18T22:31:58.744Z,15.70
2022-10-18T22:34:03.454Z,15.05
2022-10-18T22:36:05.389Z,15.10
2022-10-18T22:38:07.073Z,13.95
2022-10-18T22:40:09.730Z,14.82
2022-10-18T22:42:11.406Z,14.63
2022-10-18T22:44:14.887Z,17.30
2022-10-18T22:46:17.543Z,14.43
2022-10-18T22:48:19.523Z,17.23
2022-10-18T22:50:21.204Z,15.32
2022-10-18T22:52:23.138Z,14.35
2022-10-18T22:54:24.989Z,16.42
2022-10-18T22:56:26.671Z,16.95
2022-10-18T22:58:28.923Z,14.77
2022-10-18T23:00:30.716Z,16.20
2022-10-18T23:02:32.626Z,14.90
2022-10-18T23:04:34.851Z,15.35
2022-10-18T23:06:36.827Z,15.40
2022-10-18T23:08:38.555Z,14.85
2022-10-18T23:10:42.195Z,16.00
2022-10-18T23:14:45.799Z,13.98
2022-10-18T23:16:47.588Z,14.13
2022-10-18T23:18:56.084Z,14.73
2022-10-18T23:21:15.910Z,14.38
2022-10-18T23:23:17.837Z,15.57
2022-10-18T23:25:20.057Z,15.32
2022-10-18T23:27:21.739Z,13.80
2022-10-18T23:31:43.902Z,14.20
2022-10-18T23:33:47.467Z,14.13
2022-10-18T23:35:49.271Z,14.63
2022-10-18T23:37:51.970Z,15.52
2022-10-18T23:39:53.723Z,15.20
2022-10-18T23:41:55.399Z,14.32
2022-10-18T23:43:57.351Z,13.25
2022-10-18T23:45:59.079Z,14.43
2022-10-18T23:48:00.793Z,13.43
2022-10-18T23:50:02.747Z,14.38
2022-10-18T23:52:04.647Z,13.70
2022-10-18T23:54:06.337Z,14.82
2022-10-18T23:56:13.539Z,13.55
2022-10-18T23:58:15.275Z,14.07
